Nashua, NH

6:05 AM EST on December 09, 2016 (GMT -0500)
Rosewood | | Change Station

Elev 218 ft 42.71 °N, 71.49 °W | Updated 13 seconds ago

Clear
Clear
30.4 °F
Feels Like 30 °F
N
3.0
Wind Variable Wind from WNW
Gusts 0.0 mph

Today
High -- | Low -- °F
--% Chance of Precip.
Yesterday
High -- | Low -- °F
Precip. -- in
Pressure 29.90 in
Visibility 10.0 miles
Clouds Few 4000 ft
Windchill 30 °F
Dew Point 20 °F
Humidity 65%
Rainfall 0.00 in
Snow Depth Not available.
7:04 AM 4:12 PM
Waxing Gibbous, 73% visible
METAR KASH 091056Z AUTO VRB06KT 10SM FEW040 M01/M07 A2986 RMK AO2 SLP124 T10061072
Pressure 29.90 in
Visibility 10.0 miles
Clouds Few 4000 ft
Windchill 30 °F
Dew Point 20 °F
Humidity 65%
Rainfall 0.00 in
Snow Depth Not available.
7:04 AM 4:12 PM
Waxing Gibbous, 73% visible
METAR KASH 091056Z AUTO VRB06KT 10SM FEW040 M01/M07 A2986 RMK AO2 SLP124 T10061072

10-Day Weather Forecast

Almanac

Astronomy

Dec. 09, 2016 Rise Set
Actual Time
Civil Twilight
Nautical Twilight
Astronomical Twilight
Moon
Length of Visible Light
Length of Day
Tomorrow will be .
, % of the Moon is Illuminated

Today's Extremes

State Highs State Lows

Community

WunderPhotos

Upload Photos

1,956,378 photos uploaded!

WunderBlog® & News

Nearby

Air Quality

  Air Quality AQ Index Pollutant
Not available.

Snow Depth

Station Depth Elevation

Earthquake Activity

City Distance Mag. Time & Date
Minimum magnitude displayed is 2.5.

Coastal Water Temperatures

Place Temperature

Stations

Nearby Weather Stations

Station Location Temp. Windchill Dew Point Humidity Wind Precip. Elev Updated Type
                   

Watches & Warnings

There are currently no watches in effect.